sensor_id;sensor_type;location;lat;lon;timestamp;P1;durP1;ratioP1;P2;durP2;ratioP2
29200;SDS011;16244;51.956;12.980;2023-01-09T00:01:15;8.30;;;7.60;;
29200;SDS011;16244;51.956;12.980;2023-01-09T00:03:44;8.80;;;7.93;;
29200;SDS011;16244;51.956;12.980;2023-01-09T00:06:12;8.87;;;8.07;;
29200;SDS011;16244;51.956;12.980;2023-01-09T00:08:40;8.53;;;7.73;;
29200;SDS011;16244;51.956;12.980;2023-01-09T00:11:07;8.80;;;7.97;;
29200;SDS011;16244;51.956;12.980;2023-01-09T00:13:34;8.37;;;7.57;;
29200;SDS011;16244;51.956;12.980;2023-01-09T00:16:02;8.67;;;7.87;;
29200;SDS011;16244;51.956;12.980;2023-01-09T00:18:31;8.80;;;7.90;;
29200;SDS011;16244;51.956;12.980;2023-01-09T00:20:58;11.23;;;8.80;;
29200;SDS011;16244;51.956;12.980;2023-01-09T00:23:26;9.37;;;8.47;;
29200;SDS011;16244;51.956;12.980;2023-01-09T00:25:59;9.73;;;8.73;;
29200;SDS011;16244;51.956;12.980;2023-01-09T00:28:28;9.50;;;8.63;;
29200;SDS011;16244;51.956;12.980;2023-01-09T00:30:55;8.20;;;7.30;;
29200;SDS011;16244;51.956;12.980;2023-01-09T00:33:23;11.50;;;8.10;;
29200;SDS011;16244;51.956;12.980;2023-01-09T00:35:55;10.07;;;8.70;;
29200;SDS011;16244;51.956;12.980;2023-01-09T00:38:22;10.10;;;9.10;;
29200;SDS011;16244;51.956;12.980;2023-01-09T00:40:50;9.90;;;8.63;;
29200;SDS011;16244;51.956;12.980;2023-01-09T00:43:17;13.00;;;9.93;;
29200;SDS011;16244;51.956;12.980;2023-01-09T00:45:45;9.73;;;8.70;;
29200;SDS011;16244;51.956;12.980;2023-01-09T00:48:13;10.80;;;9.40;;
29200;SDS011;16244;51.956;12.980;2023-01-09T00:50:49;13.40;;;9.50;;
29200;SDS011;16244;51.956;12.980;2023-01-09T00:53:19;10.37;;;9.20;;
29200;SDS011;16244;51.956;12.980;2023-01-09T00:55:48;11.07;;;9.00;;
29200;SDS011;16244;51.956;12.980;2023-01-09T00:58:16;13.17;;;10.47;;
29200;SDS011;16244;51.956;12.980;2023-01-09T01:00:44;12.57;;;9.40;;
29200;SDS011;16244;51.956;12.980;2023-01-09T01:03:11;12.40;;;9.93;;
29200;SDS011;16244;51.956;12.980;2023-01-09T01:05:38;11.73;;;9.60;;
29200;SDS011;16244;51.956;12.980;2023-01-09T01:08:24;11.87;;;9.83;;
29200;SDS011;16244;51.956;12.980;2023-01-09T01:10:52;10.60;;;9.50;;
29200;SDS011;16244;51.956;12.980;2023-01-09T01:13:19;13.13;;;10.67;;
29200;SDS011;16244;51.956;12.980;2023-01-09T01:15:46;13.00;;;10.93;;
29200;SDS011;16244;51.956;12.980;2023-01-09T01:18:13;12.93;;;10.10;;
29200;SDS011;16244;51.956;12.980;2023-01-09T01:20:41;14.43;;;10.87;;
29200;SDS011;16244;51.956;12.980;2023-01-09T01:23:09;17.20;;;10.27;;
29200;SDS011;16244;51.956;12.980;2023-01-09T01:25:38;13.33;;;10.60;;
29200;SDS011;16244;51.956;12.980;2023-01-09T01:28:07;10.80;;;9.70;;
29200;SDS011;16244;51.956;12.980;2023-01-09T01:30:36;14.97;;;10.00;;
29200;SDS011;16244;51.956;12.980;2023-01-09T01:33:03;13.57;;;11.23;;
29200;SDS011;16244;51.956;12.980;2023-01-09T01:35:30;13.60;;;11.00;;
29200;SDS011;16244;51.956;12.980;2023-01-09T01:37:58;15.20;;;12.07;;
29200;SDS011;16244;51.956;12.980;2023-01-09T01:40:25;22.63;;;12.10;;
29200;SDS011;16244;51.956;12.980;2023-01-09T01:42:54;17.37;;;11.60;;
29200;SDS011;16244;51.956;12.980;2023-01-09T01:45:23;15.50;;;12.03;;
29200;SDS011;16244;51.956;12.980;2023-01-09T01:47:53;19.10;;;13.43;;
29200;SDS011;16244;51.956;12.980;2023-01-09T01:50:26;16.70;;;12.93;;
29200;SDS011;16244;51.956;12.980;2023-01-09T01:52:58;20.97;;;13.00;;
29200;SDS011;16244;51.956;12.980;2023-01-09T01:55:32;14.93;;;12.87;;
29200;SDS011;16244;51.956;12.980;2023-01-09T01:58:03;17.77;;;12.93;;
29200;SDS011;16244;51.956;12.980;2023-01-09T02:00:34;19.23;;;13.73;;
29200;SDS011;16244;51.956;12.980;2023-01-09T02:03:04;19.30;;;13.77;;
29200;SDS011;16244;51.956;12.980;2023-01-09T02:05:32;18.30;;;13.00;;
29200;SDS011;16244;51.956;12.980;2023-01-09T02:08:01;22.40;;;14.40;;
29200;SDS011;16244;51.956;12.980;2023-01-09T02:10:29;22.37;;;13.97;;
29200;SDS011;16244;51.956;12.980;2023-01-09T02:12:56;20.10;;;13.10;;
29200;SDS011;16244;51.956;12.980;2023-01-09T02:15:26;18.63;;;14.23;;
29200;SDS011;16244;51.956;12.980;2023-01-09T02:17:59;25.57;;;14.37;;
29200;SDS011;16244;51.956;12.980;2023-01-09T02:20:40;20.47;;;14.63;;
29200;SDS011;16244;51.956;12.980;2023-01-09T02:23:25;22.23;;;14.77;;
29200;SDS011;16244;51.956;12.980;2023-01-09T02:32:15;19.17;;;14.30;;
29200;SDS011;16244;51.956;12.980;2023-01-09T02:34:55;21.13;;;14.90;;
29200;SDS011;16244;51.956;12.980;2023-01-09T02:37:33;21.50;;;13.70;;
29200;SDS011;16244;51.956;12.980;2023-01-09T02:40:08;17.87;;;13.73;;
29200;SDS011;16244;51.956;12.980;2023-01-09T02:42:43;18.77;;;13.90;;
29200;SDS011;16244;51.956;12.980;2023-01-09T02:45:12;20.73;;;14.63;;
29200;SDS011;16244;51.956;12.980;2023-01-09T02:47:42;18.60;;;13.60;;
29200;SDS011;16244;51.956;12.980;2023-01-09T02:50:12;17.17;;;13.47;;
29200;SDS011;16244;51.956;12.980;2023-01-09T02:52:55;19.80;;;14.30;;
29200;SDS011;16244;51.956;12.980;2023-01-09T02:55:34;19.53;;;13.90;;
29200;SDS011;16244;51.956;12.980;2023-01-09T02:58:17;19.27;;;14.27;;
29200;SDS011;16244;51.956;12.980;2023-01-09T03:01:01;18.63;;;14.20;;
29200;SDS011;16244;51.956;12.980;2023-01-09T03:03:42;18.10;;;13.13;;
29200;SDS011;16244;51.956;12.980;2023-01-09T03:06:15;17.67;;;13.60;;
29200;SDS011;16244;51.956;12.980;2023-01-09T03:08:48;18.23;;;14.63;;
29200;SDS011;16244;51.956;12.980;2023-01-09T03:11:18;19.37;;;14.40;;
29200;SDS011;16244;51.956;12.980;2023-01-09T03:13:47;23.00;;;14.97;;
29200;SDS011;16244;51.956;12.980;2023-01-09T03:16:19;20.37;;;14.43;;
29200;SDS011;16244;51.956;12.980;2023-01-09T03:18:50;16.73;;;13.70;;
29200;SDS011;16244;51.956;12.980;2023-01-09T03:21:19;20.93;;;14.73;;
29200;SDS011;16244;51.956;12.980;2023-01-09T03:23:48;16.40;;;13.43;;
29200;SDS011;16244;51.956;12.980;2023-01-09T03:26:17;16.93;;;13.93;;
29200;SDS011;16244;51.956;12.980;2023-01-09T03:28:45;24.50;;;13.43;;
29200;SDS011;16244;51.956;12.980;2023-01-09T03:31:12;17.83;;;12.93;;
29200;SDS011;16244;51.956;12.980;2023-01-09T03:33:40;16.27;;;12.30;;
29200;SDS011;16244;51.956;12.980;2023-01-09T03:36:09;18.57;;;13.67;;
29200;SDS011;16244;51.956;12.980;2023-01-09T03:38:40;15.53;;;13.07;;
29200;SDS011;16244;51.956;12.980;2023-01-09T03:41:07;19.40;;;14.27;;
29200;SDS011;16244;51.956;12.980;2023-01-09T03:43:35;17.43;;;14.13;;
29200;SDS011;16244;51.956;12.980;2023-01-09T03:46:02;20.23;;;13.90;;
29200;SDS011;16244;51.956;12.980;2023-01-09T03:48:29;19.00;;;14.73;;
29200;SDS011;16244;51.956;12.980;2023-01-09T03:50:57;23.00;;;15.50;;
29200;SDS011;16244;51.956;12.980;2023-01-09T03:53:25;16.23;;;12.87;;
29200;SDS011;16244;51.956;12.980;2023-01-09T03:55:54;24.57;;;14.23;;
29200;SDS011;16244;51.956;12.980;2023-01-09T03:58:23;24.83;;;14.73;;
29200;SDS011;16244;51.956;12.980;2023-01-09T04:00:53;18.90;;;14.23;;
29200;SDS011;16244;51.956;12.980;2023-01-09T04:03:24;20.10;;;14.57;;
29200;SDS011;16244;51.956;12.980;2023-01-09T04:05:51;20.30;;;14.07;;
29200;SDS011;16244;51.956;12.980;2023-01-09T04:08:18;17.37;;;13.30;;
29200;SDS011;16244;51.956;12.980;2023-01-09T04:10:47;18.83;;;13.90;;
29200;SDS011;16244;51.956;12.980;2023-01-09T04:13:15;21.43;;;13.80;;
29200;SDS011;16244;51.956;12.980;2023-01-09T04:15:42;19.60;;;14.80;;
29200;SDS011;16244;51.956;12.980;2023-01-09T04:18:09;20.27;;;13.90;;
29200;SDS011;16244;51.956;12.980;2023-01-09T04:20:36;16.90;;;12.57;;
29200;SDS011;16244;51.956;12.980;2023-01-09T04:23:04;18.93;;;13.40;;
29200;SDS011;16244;51.956;12.980;2023-01-09T04:25:32;20.70;;;13.63;;
29200;SDS011;16244;51.956;12.980;2023-01-09T04:28:01;23.10;;;13.40;;
29200;SDS011;16244;51.956;12.980;2023-01-09T04:30:28;18.30;;;12.90;;
29200;SDS011;16244;51.956;12.980;2023-01-09T04:32:56;18.20;;;13.00;;
29200;SDS011;16244;51.956;12.980;2023-01-09T04:35:23;18.10;;;13.97;;
29200;SDS011;16244;51.956;12.980;2023-01-09T04:37:50;19.63;;;13.43;;
29200;SDS011;16244;51.956;12.980;2023-01-09T04:40:17;18.93;;;14.73;;
29200;SDS011;16244;51.956;12.980;2023-01-09T04:42:44;19.67;;;14.00;;
29200;SDS011;16244;51.956;12.980;2023-01-09T04:45:13;27.83;;;18.03;;
29200;SDS011;16244;51.956;12.980;2023-01-09T04:47:42;21.73;;;14.10;;
29200;SDS011;16244;51.956;12.980;2023-01-09T04:50:10;24.47;;;16.20;;
29200;SDS011;16244;51.956;12.980;2023-01-09T04:52:38;19.40;;;14.57;;
29200;SDS011;16244;51.956;12.980;2023-01-09T04:55:06;27.70;;;15.93;;
29200;SDS011;16244;51.956;12.980;2023-01-09T04:57:34;24.67;;;15.30;;
29200;SDS011;16244;51.956;12.980;2023-01-09T05:00:02;25.83;;;15.67;;
29200;SDS011;16244;51.956;12.980;2023-01-09T05:02:35;26.03;;;15.90;;
29200;SDS011;16244;51.956;12.980;2023-01-09T05:05:03;26.97;;;17.60;;
29200;SDS011;16244;51.956;12.980;2023-01-09T05:07:31;32.20;;;16.13;;
29200;SDS011;16244;51.956;12.980;2023-01-09T05:09:59;27.77;;;17.30;;
29200;SDS011;16244;51.956;12.980;2023-01-09T05:12:27;27.03;;;16.70;;
29200;SDS011;16244;51.956;12.980;2023-01-09T05:14:54;36.27;;;19.83;;
29200;SDS011;16244;51.956;12.980;2023-01-09T05:17:22;27.43;;;16.73;;
29200;SDS011;16244;51.956;12.980;2023-01-09T05:19:51;23.57;;;16.07;;
29200;SDS011;16244;51.956;12.980;2023-01-09T05:22:19;29.40;;;18.83;;
29200;SDS011;16244;51.956;12.980;2023-01-09T05:24:46;30.97;;;18.43;;
29200;SDS011;16244;51.956;12.980;2023-01-09T05:27:13;24.03;;;15.90;;
29200;SDS011;16244;51.956;12.980;2023-01-09T05:29:40;20.70;;;14.47;;
29200;SDS011;16244;51.956;12.980;2023-01-09T05:32:07;21.90;;;14.40;;
29200;SDS011;16244;51.956;12.980;2023-01-09T05:34:34;21.20;;;14.50;;
29200;SDS011;16244;51.956;12.980;2023-01-09T05:37:03;26.67;;;15.80;;
29200;SDS011;16244;51.956;12.980;2023-01-09T05:39:30;25.87;;;14.57;;
29200;SDS011;16244;51.956;12.980;2023-01-09T05:41:57;22.77;;;15.03;;
29200;SDS011;16244;51.956;12.980;2023-01-09T05:44:24;24.83;;;16.03;;
29200;SDS011;16244;51.956;12.980;2023-01-09T05:46:51;25.67;;;16.70;;
29200;SDS011;16244;51.956;12.980;2023-01-09T05:49:18;22.70;;;14.87;;
29200;SDS011;16244;51.956;12.980;2023-01-09T05:51:45;25.93;;;15.70;;
29200;SDS011;16244;51.956;12.980;2023-01-09T05:54:14;22.07;;;15.93;;
29200;SDS011;16244;51.956;12.980;2023-01-09T05:56:41;28.30;;;17.73;;
29200;SDS011;16244;51.956;12.980;2023-01-09T05:59:08;28.40;;;16.73;;
29200;SDS011;16244;51.956;12.980;2023-01-09T06:01:35;24.43;;;15.17;;
29200;SDS011;16244;51.956;12.980;2023-01-09T06:04:03;26.80;;;15.77;;
29200;SDS011;16244;51.956;12.980;2023-01-09T06:06:30;21.60;;;14.57;;
29200;SDS011;16244;51.956;12.980;2023-01-09T06:08:57;32.83;;;15.03;;
29200;SDS011;16244;51.956;12.980;2023-01-09T06:11:25;20.43;;;14.33;;
29200;SDS011;16244;51.956;12.980;2023-01-09T06:13:53;25.13;;;16.00;;
29200;SDS011;16244;51.956;12.980;2023-01-09T06:16:20;24.13;;;14.53;;
29200;SDS011;16244;51.956;12.980;2023-01-09T06:18:47;26.23;;;15.00;;
29200;SDS011;16244;51.956;12.980;2023-01-09T06:21:14;23.10;;;15.20;;
29200;SDS011;16244;51.956;12.980;2023-01-09T06:23:42;25.60;;;15.80;;
29200;SDS011;16244;51.956;12.980;2023-01-09T06:26:09;25.87;;;15.53;;
29200;SDS011;16244;51.956;12.980;2023-01-09T06:28:38;26.37;;;15.47;;
29200;SDS011;16244;51.956;12.980;2023-01-09T06:31:05;26.80;;;16.20;;
29200;SDS011;16244;51.956;12.980;2023-01-09T06:33:32;29.73;;;13.60;;
29200;SDS011;16244;51.956;12.980;2023-01-09T06:35:59;25.70;;;15.37;;
29200;SDS011;16244;51.956;12.980;2023-01-09T06:38:27;21.50;;;14.80;;
29200;SDS011;16244;51.956;12.980;2023-01-09T06:40:54;25.73;;;15.37;;
29200;SDS011;16244;51.956;12.980;2023-01-09T06:43:21;24.10;;;15.67;;
29200;SDS011;16244;51.956;12.980;2023-01-09T06:45:49;24.27;;;14.70;;
29200;SDS011;16244;51.956;12.980;2023-01-09T06:48:17;26.10;;;15.10;;
29200;SDS011;16244;51.956;12.980;2023-01-09T06:50:44;26.03;;;16.33;;
29200;SDS011;16244;51.956;12.980;2023-01-09T06:53:13;31.17;;;16.20;;
29200;SDS011;16244;51.956;12.980;2023-01-09T06:55:40;41.70;;;15.33;;
29200;SDS011;16244;51.956;12.980;2023-01-09T06:58:07;27.13;;;15.10;;
29200;SDS011;16244;51.956;12.980;2023-01-09T07:00:35;26.80;;;16.40;;
29200;SDS011;16244;51.956;12.980;2023-01-09T07:03:04;26.63;;;15.27;;
29200;SDS011;16244;51.956;12.980;2023-01-09T07:05:32;25.17;;;14.83;;
29200;SDS011;16244;51.956;12.980;2023-01-09T07:08:05;28.90;;;15.77;;
29200;SDS011;16244;51.956;12.980;2023-01-09T07:10:33;26.60;;;15.33;;
29200;SDS011;16244;51.956;12.980;2023-01-09T07:13:01;23.30;;;14.20;;
29200;SDS011;16244;51.956;12.980;2023-01-09T07:15:28;21.40;;;14.57;;
29200;SDS011;16244;51.956;12.980;2023-01-09T07:17:55;22.40;;;13.97;;
29200;SDS011;16244;51.956;12.980;2023-01-09T07:20:23;24.33;;;13.93;;
29200;SDS011;16244;51.956;12.980;2023-01-09T07:22:51;22.47;;;13.30;;
29200;SDS011;16244;51.956;12.980;2023-01-09T07:25:18;22.30;;;14.87;;
29200;SDS011;16244;51.956;12.980;2023-01-09T07:27:46;21.93;;;13.87;;
29200;SDS011;16244;51.956;12.980;2023-01-09T07:30:13;24.40;;;14.83;;
29200;SDS011;16244;51.956;12.980;2023-01-09T07:32:42;23.30;;;13.93;;
29200;SDS011;16244;51.956;12.980;2023-01-09T07:35:09;26.03;;;15.00;;
29200;SDS011;16244;51.956;12.980;2023-01-09T07:37:38;19.77;;;13.53;;
29200;SDS011;16244;51.956;12.980;2023-01-09T07:40:06;27.50;;;15.40;;
29200;SDS011;16244;51.956;12.980;2023-01-09T07:42:34;25.87;;;14.97;;
29200;SDS011;16244;51.956;12.980;2023-01-09T07:45:01;20.47;;;14.50;;
29200;SDS011;16244;51.956;12.980;2023-01-09T07:47:28;23.13;;;14.47;;
29200;SDS011;16244;51.956;12.980;2023-01-09T07:49:55;21.80;;;14.30;;
29200;SDS011;16244;51.956;12.980;2023-01-09T07:52:22;20.33;;;12.20;;
29200;SDS011;16244;51.956;12.980;2023-01-09T07:54:50;22.37;;;13.43;;
29200;SDS011;16244;51.956;12.980;2023-01-09T07:57:17;23.47;;;13.40;;
29200;SDS011;16244;51.956;12.980;2023-01-09T07:59:45;25.53;;;14.30;;
29200;SDS011;16244;51.956;12.980;2023-01-09T08:02:12;21.90;;;12.80;;
29200;SDS011;16244;51.956;12.980;2023-01-09T08:04:39;22.77;;;12.03;;
29200;SDS011;16244;51.956;12.980;2023-01-09T08:07:06;16.63;;;12.00;;
29200;SDS011;16244;51.956;12.980;2023-01-09T08:09:33;17.43;;;12.57;;
29200;SDS011;16244;51.956;12.980;2023-01-09T08:12:02;18.80;;;13.33;;
29200;SDS011;16244;51.956;12.980;2023-01-09T08:14:29;18.07;;;13.47;;
29200;SDS011;16244;51.956;12.980;2023-01-09T08:16:56;20.43;;;12.70;;
29200;SDS011;16244;51.956;12.980;2023-01-09T08:19:24;23.70;;;13.20;;
29200;SDS011;16244;51.956;12.980;2023-01-09T08:21:51;18.47;;;12.50;;
29200;SDS011;16244;51.956;12.980;2023-01-09T08:24:18;18.63;;;11.37;;
29200;SDS011;16244;51.956;12.980;2023-01-09T08:26:45;21.10;;;13.03;;
29200;SDS011;16244;51.956;12.980;2023-01-09T08:29:13;19.03;;;12.50;;
29200;SDS011;16244;51.956;12.980;2023-01-09T08:31:40;22.30;;;12.80;;
29200;SDS011;16244;51.956;12.980;2023-01-09T08:34:08;20.40;;;13.63;;
29200;SDS011;16244;51.956;12.980;2023-01-09T08:36:35;21.93;;;12.73;;
29200;SDS011;16244;51.956;12.980;2023-01-09T08:39:02;18.13;;;12.03;;
29200;SDS011;16244;51.956;12.980;2023-01-09T08:41:29;12.60;;;10.37;;
29200;SDS011;16244;51.956;12.980;2023-01-09T08:44:15;19.50;;;11.27;;
29200;SDS011;16244;51.956;12.980;2023-01-09T08:47:00;18.40;;;10.73;;
29200;SDS011;16244;51.956;12.980;2023-01-09T08:49:33;14.30;;;10.87;;
29200;SDS011;16244;51.956;12.980;2023-01-09T08:52:03;14.63;;;10.70;;
29200;SDS011;16244;51.956;12.980;2023-01-09T08:54:32;11.70;;;9.80;;
29200;SDS011;16244;51.956;12.980;2023-01-09T08:57:01;14.67;;;10.57;;
29200;SDS011;16244;51.956;12.980;2023-01-09T08:59:29;13.27;;;10.30;;
29200;SDS011;16244;51.956;12.980;2023-01-09T09:01:56;16.47;;;10.40;;
29200;SDS011;16244;51.956;12.980;2023-01-09T09:04:23;13.30;;;11.03;;
29200;SDS011;16244;51.956;12.980;2023-01-09T09:06:51;11.20;;;9.63;;
29200;SDS011;16244;51.956;12.980;2023-01-09T09:09:18;12.00;;;9.53;;
29200;SDS011;16244;51.956;12.980;2023-01-09T09:11:45;10.80;;;9.80;;
29200;SDS011;16244;51.956;12.980;2023-01-09T09:14:12;13.67;;;10.10;;
29200;SDS011;16244;51.956;12.980;2023-01-09T09:16:58;10.80;;;9.07;;
29200;SDS011;16244;51.956;12.980;2023-01-09T09:19:25;10.90;;;9.60;;
29200;SDS011;16244;51.956;12.980;2023-01-09T09:21:52;16.97;;;9.97;;
29200;SDS011;16244;51.956;12.980;2023-01-09T09:24:19;14.90;;;9.07;;
29200;SDS011;16244;51.956;12.980;2023-01-09T09:26:46;10.03;;;8.73;;
29200;SDS011;16244;51.956;12.980;2023-01-09T09:29:13;11.07;;;9.23;;
29200;SDS011;16244;51.956;12.980;2023-01-09T09:31:40;7.50;;;6.80;;
29200;SDS011;16244;51.956;12.980;2023-01-09T09:34:09;6.63;;;5.90;;
29200;SDS011;16244;51.956;12.980;2023-01-09T09:36:37;8.70;;;7.90;;
29200;SDS011;16244;51.956;12.980;2023-01-09T09:39:04;6.10;;;5.60;;
29200;SDS011;16244;51.956;12.980;2023-01-09T09:41:37;5.53;;;5.23;;
29200;SDS011;16244;51.956;12.980;2023-01-09T09:44:42;9.70;;;5.50;;
29200;SDS011;16244;51.956;12.980;2023-01-09T09:47:25;5.20;;;4.80;;
29200;SDS011;16244;51.956;12.980;2023-01-09T09:50:12;10.93;;;9.93;;
29200;SDS011;16244;51.956;12.980;2023-01-09T09:52:48;7.97;;;7.27;;
29200;SDS011;16244;51.956;12.980;2023-01-09T09:55:21;6.70;;;6.10;;
29200;SDS011;16244;51.956;12.980;2023-01-09T09:57:51;7.43;;;6.83;;
29200;SDS011;16244;51.956;12.980;2023-01-09T10:00:21;5.60;;;5.30;;
29200;SDS011;16244;51.956;12.980;2023-01-09T10:02:50;4.87;;;4.60;;
29200;SDS011;16244;51.956;12.980;2023-01-09T10:05:23;3.97;;;3.87;;
29200;SDS011;16244;51.956;12.980;2023-01-09T10:07:53;3.17;;;3.00;;
29200;SDS011;16244;51.956;12.980;2023-01-09T10:10:28;3.77;;;3.60;;
29200;SDS011;16244;51.956;12.980;2023-01-09T10:12:58;3.07;;;2.87;;
29200;SDS011;16244;51.956;12.980;2023-01-09T10:15:48;3.80;;;3.70;;
29200;SDS011;16244;51.956;12.980;2023-01-09T10:18:24;4.27;;;3.93;;
29200;SDS011;16244;51.956;12.980;2023-01-09T10:21:01;3.23;;;3.13;;
29200;SDS011;16244;51.956;12.980;2023-01-09T10:23:48;3.60;;;3.43;;
29200;SDS011;16244;51.956;12.980;2023-01-09T10:26:41;4.37;;;4.20;;
29200;SDS011;16244;51.956;12.980;2023-01-09T10:29:17;4.93;;;4.67;;
29200;SDS011;16244;51.956;12.980;2023-01-09T10:32:06;3.77;;;3.60;;
29200;SDS011;16244;51.956;12.980;2023-01-09T10:34:49;5.00;;;4.70;;
29200;SDS011;16244;51.956;12.980;2023-01-09T10:37:29;5.20;;;4.93;;
29200;SDS011;16244;51.956;12.980;2023-01-09T10:40:00;4.30;;;4.10;;
29200;SDS011;16244;51.956;12.980;2023-01-09T10:42:33;3.93;;;3.80;;
29200;SDS011;16244;51.956;12.980;2023-01-09T10:45:06;5.20;;;4.53;;
29200;SDS011;16244;51.956;12.980;2023-01-09T10:47:42;3.40;;;3.30;;
29200;SDS011;16244;51.956;12.980;2023-01-09T10:50:17;4.00;;;3.87;;
29200;SDS011;16244;51.956;12.980;2023-01-09T10:52:48;3.80;;;3.70;;
29200;SDS011;16244;51.956;12.980;2023-01-09T10:55:17;4.20;;;3.90;;
29200;SDS011;16244;51.956;12.980;2023-01-09T10:57:51;3.90;;;3.70;;
29200;SDS011;16244;51.956;12.980;2023-01-09T11:00:23;3.53;;;3.40;;
29200;SDS011;16244;51.956;12.980;2023-01-09T11:02:51;5.40;;;3.70;;
29200;SDS011;16244;51.956;12.980;2023-01-09T11:05:21;4.30;;;4.10;;
29200;SDS011;16244;51.956;12.980;2023-01-09T11:07:52;3.23;;;2.93;;
29200;SDS011;16244;51.956;12.980;2023-01-09T11:10:22;3.03;;;2.83;;
29200;SDS011;16244;51.956;12.980;2023-01-09T11:13:11;3.20;;;3.10;;
29200;SDS011;16244;51.956;12.980;2023-01-09T11:15:40;2.90;;;2.80;;
29200;SDS011;16244;51.956;12.980;2023-01-09T11:18:15;3.30;;;3.20;;
29200;SDS011;16244;51.956;12.980;2023-01-09T11:20:48;2.03;;;1.93;;
29200;SDS011;16244;51.956;12.980;2023-01-09T11:23:27;2.53;;;2.33;;
29200;SDS011;16244;51.956;12.980;2023-01-09T11:25:57;2.37;;;2.00;;
29200;SDS011;16244;51.956;12.980;2023-01-09T11:28:25;4.30;;;2.50;;
29200;SDS011;16244;51.956;12.980;2023-01-09T11:30:54;7.10;;;5.43;;
29200;SDS011;16244;51.956;12.980;2023-01-09T11:33:24;2.90;;;2.63;;
29200;SDS011;16244;51.956;12.980;2023-01-09T11:35:55;4.50;;;3.90;;
29200;SDS011;16244;51.956;12.980;2023-01-09T11:38:25;2.30;;;2.20;;
29200;SDS011;16244;51.956;12.980;2023-01-09T11:40:55;4.30;;;1.70;;
29200;SDS011;16244;51.956;12.980;2023-01-09T11:43:28;1.77;;;1.77;;
29200;SDS011;16244;51.956;12.980;2023-01-09T11:45:58;3.27;;;1.20;;
29200;SDS011;16244;51.956;12.980;2023-01-09T11:48:29;2.07;;;1.97;;
29200;SDS011;16244;51.956;12.980;2023-01-09T11:51:00;2.63;;;1.27;;
29200;SDS011;16244;51.956;12.980;2023-01-09T11:53:31;2.10;;;1.00;;
29200;SDS011;16244;51.956;12.980;2023-01-09T11:56:10;0.80;;;0.80;;
29200;SDS011;16244;51.956;12.980;2023-01-09T11:58:41;1.27;;;1.10;;
29200;SDS011;16244;51.956;12.980;2023-01-09T12:01:13;0.90;;;0.90;;
29200;SDS011;16244;51.956;12.980;2023-01-09T12:03:58;1.33;;;1.23;;
29200;SDS011;16244;51.956;12.980;2023-01-09T12:06:41;4.47;;;1.27;;
29200;SDS011;16244;51.956;12.980;2023-01-09T12:09:21;0.60;;;0.60;;
29200;SDS011;16244;51.956;12.980;2023-01-09T12:11:55;0.70;;;0.70;;
29200;SDS011;16244;51.956;12.980;2023-01-09T12:14:34;0.60;;;0.60;;
29200;SDS011;16244;51.956;12.980;2023-01-09T12:17:24;1.03;;;0.50;;
29200;SDS011;16244;51.956;12.980;2023-01-09T12:20:13;4.43;;;0.60;;
29200;SDS011;16244;51.956;12.980;2023-01-09T12:22:54;0.47;;;0.47;;
29200;SDS011;16244;51.956;12.980;2023-01-09T12:25:32;0.50;;;0.50;;
29200;SDS011;16244;51.956;12.980;2023-01-09T12:28:12;0.67;;;0.40;;
29200;SDS011;16244;51.956;12.980;2023-01-09T12:30:54;2.40;;;1.00;;
29200;SDS011;16244;51.956;12.980;2023-01-09T12:33:30;1.60;;;0.83;;
29200;SDS011;16244;51.956;12.980;2023-01-09T12:36:13;2.40;;;0.70;;
29200;SDS011;16244;51.956;12.980;2023-01-09T12:38:48;0.40;;;0.40;;
29200;SDS011;16244;51.956;12.980;2023-01-09T12:41:31;2.23;;;2.13;;
29200;SDS011;16244;51.956;12.980;2023-01-09T12:44:29;0.70;;;0.50;;
29200;SDS011;16244;51.956;12.980;2023-01-09T12:50:07;2.20;;;0.40;;
29200;SDS011;16244;51.956;12.980;2023-01-09T12:52:50;0.90;;;0.40;;
29200;SDS011;16244;51.956;12.980;2023-01-09T12:55:24;0.97;;;0.47;;
29200;SDS011;16244;51.956;12.980;2023-01-09T12:57:57;1.03;;;0.60;;
29200;SDS011;16244;51.956;12.980;2023-01-09T13:00:27;0.40;;;0.30;;
29200;SDS011;16244;51.956;12.980;2023-01-09T13:03:01;4.33;;;0.50;;
29200;SDS011;16244;51.956;12.980;2023-01-09T13:05:36;0.53;;;0.30;;
29200;SDS011;16244;51.956;12.980;2023-01-09T13:08:08;0.63;;;0.50;;
29200;SDS011;16244;51.956;12.980;2023-01-09T13:10:42;0.50;;;0.40;;
29200;SDS011;16244;51.956;12.980;2023-01-09T13:13:14;0.50;;;0.30;;
29200;SDS011;16244;51.956;12.980;2023-01-09T13:15:46;3.70;;;0.40;;
29200;SDS011;16244;51.956;12.980;2023-01-09T13:18:19;0.50;;;0.40;;
29200;SDS011;16244;51.956;12.980;2023-01-09T13:20:53;0.83;;;0.40;;
29200;SDS011;16244;51.956;12.980;2023-01-09T13:23:24;0.70;;;0.40;;
29200;SDS011;16244;51.956;12.980;2023-01-09T13:25:56;0.77;;;0.30;;
29200;SDS011;16244;51.956;12.980;2023-01-09T13:28:29;0.40;;;0.40;;
29200;SDS011;16244;51.956;12.980;2023-01-09T13:31:16;0.40;;;0.40;;
29200;SDS011;16244;51.956;12.980;2023-01-09T13:33:53;0.40;;;0.30;;
29200;SDS011;16244;51.956;12.980;2023-01-09T13:36:24;0.47;;;0.40;;
29200;SDS011;16244;51.956;12.980;2023-01-09T13:38:53;0.33;;;0.33;;
29200;SDS011;16244;51.956;12.980;2023-01-09T13:41:22;1.13;;;0.40;;
29200;SDS011;16244;51.956;12.980;2023-01-09T13:44:19;1.17;;;0.47;;
29200;SDS011;16244;51.956;12.980;2023-01-09T13:46:49;2.00;;;0.40;;
29200;SDS011;16244;51.956;12.980;2023-01-09T13:49:29;1.03;;;0.67;;
29200;SDS011;16244;51.956;12.980;2023-01-09T13:51:59;3.17;;;1.50;;
29200;SDS011;16244;51.956;12.980;2023-01-09T13:57:44;1.00;;;0.40;;
29200;SDS011;16244;51.956;12.980;2023-01-09T14:03:27;0.40;;;0.30;;
29200;SDS011;16244;51.956;12.980;2023-01-09T14:08:49;1.77;;;0.40;;
29200;SDS011;16244;51.956;12.980;2023-01-09T14:11:38;0.50;;;0.30;;
29200;SDS011;16244;51.956;12.980;2023-01-09T14:14:12;0.60;;;0.30;;
29200;SDS011;16244;51.956;12.980;2023-01-09T14:16:47;0.50;;;0.40;;
29200;SDS011;16244;51.956;12.980;2023-01-09T14:19:20;0.77;;;0.40;;
29200;SDS011;16244;51.956;12.980;2023-01-09T14:21:55;4.67;;;0.90;;
29200;SDS011;16244;51.956;12.980;2023-01-09T14:24:24;1.83;;;0.60;;
29200;SDS011;16244;51.956;12.980;2023-01-09T14:26:54;9.50;;;4.80;;
29200;SDS011;16244;51.956;12.980;2023-01-09T14:29:36;0.70;;;0.60;;
29200;SDS011;16244;51.956;12.980;2023-01-09T14:35:22;0.80;;;0.40;;
29200;SDS011;16244;51.956;12.980;2023-01-09T14:38:04;0.47;;;0.40;;
29200;SDS011;16244;51.956;12.980;2023-01-09T14:40:42;0.77;;;0.77;;
29200;SDS011;16244;51.956;12.980;2023-01-09T14:43:14;0.40;;;0.40;;
29200;SDS011;16244;51.956;12.980;2023-01-09T14:45:48;0.50;;;0.40;;
29200;SDS011;16244;51.956;12.980;2023-01-09T14:48:17;0.70;;;0.33;;
29200;SDS011;16244;51.956;12.980;2023-01-09T14:50:47;0.50;;;0.40;;
29200;SDS011;16244;51.956;12.980;2023-01-09T14:53:21;0.50;;;0.40;;
29200;SDS011;16244;51.956;12.980;2023-01-09T14:55:51;0.40;;;0.40;;
29200;SDS011;16244;51.956;12.980;2023-01-09T14:58:20;1.07;;;0.30;;
29200;SDS011;16244;51.956;12.980;2023-01-09T15:00:56;0.80;;;0.40;;
29200;SDS011;16244;51.956;12.980;2023-01-09T15:03:30;2.73;;;0.67;;